Time;durP1;ratioP1;P1;durP2;ratioP2;P2;SDS_P1;SDS_P2;PMS_P1;PMS_P2;Temp;Humidity;BMP_temperature;BMP_pressure;BME280_temperature;BME280_humidity;BME280_pressure;Samples;Min_cycle;Max_cycle;Signal;HPM_P1;HPM_P2
2023/09/28 00:02:17;;;;;;;6.50;4.03;;;;;;;17.14;100.00;98375.03;5114161;28;20316;-57
2023/09/28 00:04:42;;;;;;;6.72;3.70;;;;;;;17.22;100.00;98390.84;5114082;28;20534;-57
2023/09/28 00:07:26;;;;;;;4.15;3.60;;;;;;;17.09;100.00;98386.94;5114339;28;20182;-57
2023/09/28 00:09:51;;;;;;;6.93;3.70;;;;;;;17.05;100.00;98385.56;5113679;28;20266;-57
2023/09/28 00:12:35;;;;;;;5.68;3.60;;;;;;;17.13;100.00;98393.53;5113713;28;20266;-57
2023/09/28 00:15:00;;;;;;;8.45;3.92;;;;;;;17.00;100.00;98367.72;5113875;28;20270;-57
2023/09/28 00:17:27;;;;;;;4.15;3.83;;;;;;;17.01;100.00;98363.28;5113753;28;20678;-57
2023/09/28 00:20:17;;;;;;;6.53;3.30;;;;;;;17.12;100.00;98391.84;5113853;28;20183;-57
2023/09/28 00:23:03;;;;;;;6.63;3.70;;;;;;;16.96;100.00;98392.47;5113819;28;20198;-57
2023/09/28 00:25:28;;;;;;;6.75;3.95;;;;;;;16.72;100.00;98373.06;5113677;28;20247;-57
2023/09/28 00:27:55;;;;;;;8.85;4.28;;;;;;;16.53;100.00;98357.47;5113202;28;20704;-57
2023/09/28 00:30:42;;;;;;;7.13;4.00;;;;;;;16.74;100.00;98386.81;5113423;28;20340;-57
2023/09/28 00:36:09;;;;;;;7.78;3.60;;;;;;;16.82;100.00;98389.53;5113462;28;20204;-57
2023/09/28 00:38:35;;;;;;;4.57;3.33;;;;;;;16.52;100.00;98346.22;5113430;28;20167;-57
2023/09/28 00:44:04;;;;;;;7.68;3.92;;;;;;;16.76;100.00;98387.50;5113176;28;20178;-57
2023/09/28 00:46:32;;;;;;;5.15;3.67;;;;;;;16.68;100.00;98382.16;5113225;28;20232;-57
2023/09/28 00:49:03;;;;;;;5.38;3.75;;;;;;;16.67;100.00;98380.53;5112224;28;20293;-57
2023/09/28 00:51:31;;;;;;;4.43;3.53;;;;;;;16.66;100.00;98378.84;5113163;28;20671;-57
2023/09/28 00:54:17;;;;;;;6.43;3.22;;;;;;;16.47;100.00;98358.03;5113142;28;20168;-57
2023/09/28 00:56:42;;;;;;;5.10;3.45;;;;;;;16.61;100.00;98371.47;5113151;28;20167;-57
2023/09/28 00:59:26;;;;;;;6.60;3.75;;;;;;;16.65;100.00;98382.44;5113109;28;20661;-57
2023/09/28 01:01:54;;;;;;;3.88;3.38;;;;;;;16.57;100.00;98366.66;5049773;28;20238;-57
2023/09/28 01:04:20;;;;;;;4.57;3.53;;;;;;;16.65;100.00;98372.81;5049809;28;20189;-57
2023/09/28 01:07:04;;;;;;;7.88;3.83;;;;;;;16.61;100.00;98375.88;5050115;28;20185;-57
2023/09/28 01:09:30;;;;;;;5.25;3.50;;;;;;;16.46;100.00;98359.84;5049717;28;20687;-57
2023/09/28 01:12:14;;;;;;;8.73;3.47;;;;;;;16.18;100.00;98329.38;5049665;28;20268;-57
2023/09/28 01:14:59;;;;;;;9.43;3.83;;;;;;;16.34;100.00;98367.94;5049816;28;20228;-57
2023/09/28 01:17:24;;;;;;;10.30;4.07;;;;;;;16.13;100.00;98354.25;5049594;28;20216;-57
2023/09/28 01:19:50;;;;;;;8.52;4.13;;;;;;;16.16;100.00;98362.63;5049619;28;20182;-57
2023/09/28 01:22:15;;;;;;;10.35;4.25;;;;;;;16.09;100.00;98358.13;5049559;28;20268;-57
2023/09/28 01:24:41;;;;;;;6.30;3.92;;;;;;;16.12;100.00;98358.66;5049449;28;20254;-57
2023/09/28 01:27:06;;;;;;;5.57;3.80;;;;;;;15.87;100.00;98317.47;5049454;28;20236;-57
2023/09/28 01:29:32;;;;;;;9.48;4.03;;;;;;;16.00;100.00;98349.34;5049234;28;20247;-57
2023/09/28 01:32:16;;;;;;;6.15;3.70;;;;;;;16.09;100.00;98345.88;5057577;28;20648;-57
2023/09/28 01:34:41;;;;;;;5.40;3.30;;;;;;;16.31;100.00;98363.84;5112419;28;20262;-57
2023/09/28 01:42:54;;;;;;;7.68;3.60;;;;;;;16.30;100.00;98369.19;5112194;28;20194;-57
2023/09/28 01:45:19;;;;;;;10.23;4.15;;;;;;;16.16;100.00;98338.31;5112338;28;20171;-57
2023/09/28 01:47:44;;;;;;;8.05;3.97;;;;;;;16.26;100.00;98352.19;5112175;28;20172;-57
2023/09/28 01:50:10;;;;;;;6.68;3.47;;;;;;;16.25;100.00;98338.28;5112023;28;20199;-57
2023/09/28 01:52:35;;;;;;;8.38;3.47;;;;;;;16.43;100.00;98351.44;5112001;28;20500;-57
2023/09/28 01:55:01;;;;;;;10.68;3.10;;;;;;;16.58;100.00;98361.31;5112005;28;20178;-57
2023/09/28 01:57:26;;;;;;;7.63;3.70;;;;;;;16.73;100.00;98378.16;5111872;28;20236;-57
2023/09/28 01:59:52;;;;;;;5.78;3.47;;;;;;;16.61;100.00;98360.19;5111870;28;20171;-57
2023/09/28 02:02:17;;;;;;;3.45;3.25;;;;;;;16.55;100.00;98343.28;5111423;28;20175;-58
2023/09/28 02:04:43;;;;;;;8.00;3.38;;;;;;;16.42;100.00;98324.53;5111813;28;20172;-57
2023/09/28 02:07:09;;;;;;;7.00;3.15;;;;;;;16.70;100.00;98369.78;5111679;28;20189;-58
2023/09/28 02:09:34;;;;;;;7.25;3.25;;;;;;;16.75;100.00;98359.72;5111620;28;20198;-57
2023/09/28 02:12:01;;;;;;;6.57;3.80;;;;;;;16.84;100.00;98371.94;5111581;28;20283;-58
2023/09/28 02:14:27;;;;;;;6.15;3.70;;;;;;;16.83;100.00;98378.09;5111786;28;20243;-58
2023/09/28 02:16:52;;;;;;;6.07;3.42;;;;;;;16.87;100.00;98376.84;5111616;28;20171;-57
2023/09/28 02:19:18;;;;;;;6.22;3.25;;;;;;;16.74;100.00;98361.50;5111822;28;20220;-58
2023/09/28 02:21:44;;;;;;;8.35;3.40;;;;;;;16.63;100.00;98358.25;5111648;28;20197;-57
2023/09/28 02:24:10;;;;;;;3.63;2.95;;;;;;;16.59;100.00;98367.34;5111260;28;20175;-58
2023/09/28 02:26:35;;;;;;;9.35;3.83;;;;;;;16.43;100.00;98360.13;5110854;28;20687;-58
2023/09/28 02:29:02;;;;;;;5.57;3.28;;;;;;;16.51;100.00;98357.59;5111431;28;20203;-57
2023/09/28 02:34:11;;;;;;;6.05;3.00;;;;;;;16.69;100.00;98383.81;5111189;28;20715;-57
2023/09/28 02:36:37;;;;;;;6.45;3.35;;;;;;;16.57;100.00;98364.06;5111263;28;20171;-57
2023/09/28 02:39:06;;;;;;;6.13;3.70;;;;;;;16.64;100.00;98381.63;5111290;28;20289;-58
2023/09/28 02:41:32;;;;;;;7.20;3.50;;;;;;;16.41;100.00;98364.66;5111239;28;20172;-57
2023/09/28 02:46:41;;;;;;;8.60;3.60;;;;;;;16.41;100.00;98358.59;5111027;28;20186;-57
2023/09/28 02:49:26;;;;;;;3.72;3.33;;;;;;;16.52;100.00;98385.41;5111120;28;20207;-57
2023/09/28 02:51:52;;;;;;;9.98;3.35;;;;;;;16.39;100.00;98358.75;5111354;28;20228;-57
2023/09/28 02:54:18;;;;;;;4.68;3.75;;;;;;;16.44;100.00;98368.78;5111035;28;20175;-57
2023/09/28 02:56:43;;;;;;;7.22;3.35;;;;;;;16.53;100.00;98379.19;5111212;28;20186;-57
2023/09/28 02:59:08;;;;;;;5.88;3.33;;;;;;;16.70;100.00;98380.22;5110810;28;20666;-57
2023/09/28 03:01:34;;;;;;;4.20;3.58;;;;;;;16.63;100.00;98358.25;5111097;28;20179;-57
2023/09/28 03:04:00;;;;;;;3.08;2.83;;;;;;;16.64;100.00;98344.22;5111345;28;20671;-57
2023/09/28 03:12:13;;;;;;;5.93;3.38;;;;;;;16.86;100.00;98376.00;5112440;28;20251;-57
2023/09/28 03:17:41;;;;;;;3.63;2.78;;;;;;;16.98;100.00;98376.66;5114846;28;20241;-57
2023/09/28 03:20:14;;;;;;;5.40;3.60;;;;;;;16.90;100.00;98360.91;5114844;28;20177;-56
2023/09/28 03:22:47;;;;;;;7.72;2.90;;;;;;;16.89;100.00;98348.78;5115032;28;20228;-56
2023/09/28 03:25:17;;;;;;;8.00;3.25;;;;;;;16.72;100.00;98336.47;5114912;28;20180;-56
2023/09/28 03:27:44;;;;;;;7.63;3.38;;;;;;;16.82;100.00;98353.78;5114838;28;20178;-56
2023/09/28 03:30:11;;;;;;;5.53;3.17;;;;;;;16.90;100.00;98371.34;5114614;28;20203;-57
2023/09/28 03:32:39;;;;;;;5.28;2.95;;;;;;;16.80;100.00;98347.03;5114665;28;20175;-57
2023/09/28 03:35:07;;;;;;;7.97;3.22;;;;;;;16.78;100.00;98330.66;5114553;28;20684;-57
2023/09/28 03:37:33;;;;;;;6.93;3.40;;;;;;;17.06;100.00;98367.13;5114629;28;20266;-57
2023/09/28 03:40:00;;;;;;;10.35;3.33;;;;;;;16.91;100.00;98337.19;5114286;28;20266;-57
2023/09/28 03:42:27;;;;;;;5.00;3.25;;;;;;;16.90;100.00;98340.00;5114451;28;20175;-57
2023/09/28 03:44:52;;;;;;;8.35;3.08;;;;;;;16.91;100.00;98342.44;5114464;28;20634;-56
2023/09/28 03:47:18;;;;;;;6.38;3.42;;;;;;;17.09;100.00;98390.34;5114316;28;20187;-57
2023/09/28 03:49:44;;;;;;;5.63;3.28;;;;;;;16.79;100.00;98340.19;5114356;28;20252;-56
2023/09/28 03:54:54;;;;;;;6.55;3.50;;;;;;;16.89;100.00;98375.75;5071210;28;20259;-56
2023/09/28 03:57:19;;;;;;;4.82;3.10;;;;;;;16.80;100.00;98360.13;5071043;28;20268;-56
2023/09/28 03:59:44;;;;;;;5.95;3.10;;;;;;;16.99;100.00;98380.91;5071122;28;20181;-57
2023/09/28 04:02:12;;;;;;;5.72;3.00;;;;;;;16.77;100.00;98355.16;5070985;28;20188;-57
2023/09/28 04:04:37;;;;;;;6.47;3.10;;;;;;;16.83;100.00;98371.09;5071045;28;20263;-56
2023/09/28 04:09:47;;;;;;;6.43;3.35;;;;;;;16.86;100.00;98364.75;5070945;28;20203;-56
2023/09/28 04:12:12;;;;;;;5.60;3.28;;;;;;;16.82;100.00;98358.16;5070860;28;20588;-56
2023/09/28 04:14:38;;;;;;;5.38;4.00;;;;;;;16.99;100.00;98391.38;5070785;28;20243;-57
2023/09/28 04:17:21;;;;;;;9.13;4.03;;;;;;;16.92;100.00;98382.47;5070706;28;20326;-56
2023/09/28 04:20:05;;;;;;;6.50;3.10;;;;;;;16.92;100.00;98385.09;5070844;28;20184;-56
2023/09/28 04:22:31;;;;;;;5.32;3.22;;;;;;;16.75;100.00;98359.72;5080720;28;20191;-56
2023/09/28 04:24:56;;;;;;;9.88;3.22;;;;;;;16.91;100.00;98386.06;5112548;28;20530;-56
2023/09/28 04:27:22;;;;;;;4.55;3.47;;;;;;;17.04;100.00;98404.84;5113900;28;20308;-56
2023/09/28 04:29:47;;;;;;;5.03;3.20;;;;;;;16.99;100.00;98407.91;5113515;28;20305;-57
2023/09/28 04:32:12;;;;;;;6.13;3.13;;;;;;;16.98;100.00;98384.50;5113574;28;20248;-56
2023/09/28 04:37:41;;;;;;;4.75;3.00;;;;;;;16.85;100.00;98382.22;5113377;28;20186;-56
2023/09/28 04:40:08;;;;;;;4.85;3.33;;;;;;;17.16;100.00;98424.59;5113223;28;20502;-57
2023/09/28 04:42:52;;;;;;;6.38;3.13;;;;;;;17.19;100.00;98419.09;5113431;28;20187;-56
2023/09/28 04:45:19;;;;;;;5.55;3.22;;;;;;;16.97;100.00;98390.72;5113396;28;20253;-57
2023/09/28 04:48:04;;;;;;;3.47;3.10;;;;;;;17.20;100.00;98425.97;5113485;28;20171;-56
2023/09/28 04:50:29;;;;;;;3.53;3.05;;;;;;;16.98;100.00;98394.97;5113259;28;20195;-56
2023/09/28 04:52:55;;;;;;;5.00;3.47;;;;;;;17.15;100.00;98423.75;5113628;28;20183;-56
2023/09/28 04:55:40;;;;;;;8.00;3.50;;;;;;;17.21;100.00;98431.03;5112959;28;20218;-56
2023/09/28 04:58:06;;;;;;;5.80;3.63;;;;;;;17.20;100.00;98431.19;5082568;28;20581;-56
2023/09/28 05:03:15;;;;;;;4.80;3.20;;;;;;;17.13;100.00;98437.97;5112812;28;20181;-57
2023/09/28 05:05:59;;;;;;;4.10;3.70;;;;;;;16.97;100.00;98393.31;5112929;28;20342;-56
2023/09/28 05:11:09;;;;;;;6.03;3.47;;;;;;;17.22;100.00;98408.31;5112903;28;20708;-56
2023/09/28 05:13:53;;;;;;;3.72;3.33;;;;;;;17.24;100.00;98403.75;5112498;28;20269;-56
2023/09/28 05:16:19;;;;;;;7.97;3.50;;;;;;;17.26;100.00;98412.28;5112786;28;20716;-56
2023/09/28 05:19:03;;;;;;;8.57;3.47;;;;;;;17.19;100.00;98409.44;5112713;28;20258;-56
2023/09/28 05:21:28;;;;;;;3.30;2.83;;;;;;;17.27;100.00;98437.47;5112773;28;20207;-56
2023/09/28 05:24:12;;;;;;;3.78;3.33;;;;;;;17.29;100.00;98425.06;5112508;28;20590;-57
2023/09/28 05:29:22;;;;;;;5.68;2.95;;;;;;;17.49;100.00;98435.31;5112443;28;20716;-57
2023/09/28 05:32:08;;;;;;;8.60;3.35;;;;;;;17.52;100.00;98444.66;5112426;28;20171;-57
2023/09/28 05:34:52;;;;;;;5.63;3.20;;;;;;;17.28;100.00;98402.50;5111682;28;20557;-57
2023/09/28 05:37:17;;;;;;;6.25;3.40;;;;;;;17.54;100.00;98442.72;5112298;28;20190;-57
2023/09/28 05:39:42;;;;;;;6.25;3.90;;;;;;;17.33;100.00;98408.94;5112277;28;20175;-57
2023/09/28 05:44:52;;;;;;;4.22;3.80;;;;;;;17.48;100.00;98410.09;5112278;28;20183;-57
2023/09/28 05:47:20;;;;;;;6.85;3.30;;;;;;;17.58;100.00;98423.13;5112108;28;20556;-57
2023/09/28 05:49:46;;;;;;;7.60;3.03;;;;;;;17.52;100.00;98414.09;5112042;28;20202;-57
2023/09/28 05:52:12;;;;;;;4.95;3.53;;;;;;;17.71;100.00;98447.13;5111802;28;20645;-57
2023/09/28 05:54:37;;;;;;;7.15;3.15;;;;;;;17.61;100.00;98446.41;5112015;28;20175;-57
2023/09/28 05:57:03;;;;;;;6.13;3.15;;;;;;;17.53;100.00;98420.13;5111660;28;20258;-57
2023/09/28 05:59:30;;;;;;;3.97;3.42;;;;;;;17.59;100.00;98428.22;5112273;28;20182;-57
2023/09/28 06:01:56;;;;;;;7.55;3.47;;;;;;;17.70;100.00;98445.50;5111939;28;20171;-57
2023/09/28 06:04:21;;;;;;;7.57;3.20;;;;;;;17.47;100.00;98420.72;5111836;28;20205;-57
2023/09/28 06:06:50;;;;;;;6.30;3.58;;;;;;;17.60;100.00;98450.78;5111897;28;20178;-57
2023/09/28 06:12:18;;;;;;;4.47;3.22;;;;;;;17.64;100.00;98451.31;5111819;28;20178;-57
2023/09/28 06:14:44;;;;;;;6.00;3.30;;;;;;;17.86;100.00;98471.84;5111731;28;20171;-57
2023/09/28 06:17:09;;;;;;;4.65;2.83;;;;;;;17.59;100.00;98430.84;5111336;28;20175;-57
2023/09/28 06:19:34;;;;;;;7.72;3.03;;;;;;;17.67;100.00;98448.41;5111573;28;20178;-57
2023/09/28 06:22:00;;;;;;;4.25;3.63;;;;;;;17.83;100.00;98469.53;5111608;28;20539;-57
2023/09/28 06:24:26;;;;;;;6.22;3.13;;;;;;;17.86;100.00;98466.59;5111191;28;20175;-57
2023/09/28 06:26:53;;;;;;;7.35;3.30;;;;;;;17.69;100.00;98444.69;5111274;28;20365;-57
2023/09/28 06:29:18;;;;;;;5.78;3.40;;;;;;;17.78;100.00;98458.69;5111318;28;20195;-57
2023/09/28 06:31:44;;;;;;;6.00;3.20;;;;;;;17.97;100.00;98484.72;5111446;28;20545;-57
2023/09/28 06:34:09;;;;;;;6.32;3.55;;;;;;;17.94;100.00;98472.72;5111420;28;20167;-57
2023/09/28 06:36:53;;;;;;;5.80;3.22;;;;;;;18.07;100.00;98475.00;5111698;28;20179;-57
2023/09/28 06:39:19;;;;;;;5.45;3.22;;;;;;;17.83;100.00;98440.72;5111449;28;20175;-57
2023/09/28 06:42:22;;;;;;;4.78;3.22;;;;;;;18.13;100.00;98479.63;5111321;28;20598;-57
2023/09/28 06:44:47;;;;;;;3.05;2.80;;;;;;;17.95;100.00;98452.63;5111397;28;20171;-57
2023/09/28 06:47:31;;;;;;;8.75;3.20;;;;;;;18.19;100.00;98481.66;5110944;28;20178;-57
2023/09/28 06:49:57;;;;;;;9.63;3.15;;;;;;;18.34;100.00;98472.28;5111256;28;20198;-57
2023/09/28 06:52:23;;;;;;;10.35;3.47;;;;;;;18.38;100.00;98486.75;5111278;28;20167;-57
2023/09/28 06:54:49;;;;;;;4.93;3.58;;;;;;;18.19;100.00;98453.63;5111057;28;20175;-57
2023/09/28 06:57:14;;;;;;;10.68;3.75;;;;;;;18.25;100.00;98463.50;5110988;28;20256;-57
2023/09/28 07:00:01;;;;;;;5.80;3.05;;;;;;;18.41;100.00;98483.84;5111161;28;20183;-58
2023/09/28 07:02:26;;;;;;;7.20;3.35;;;;;;;18.38;100.00;98474.47;5111063;28;20163;-57
2023/09/28 07:04:52;;;;;;;4.25;3.05;;;;;;;18.44;100.00;98479.09;5110899;28;20195;-57
2023/09/28 07:07:17;;;;;;;3.67;3.08;;;;;;;18.57;100.00;98494.41;5111008;28;20646;-57
2023/09/28 07:12:27;;;;;;;8.60;3.67;;;;;;;18.39;100.00;98485.75;5110687;28;20226;-57
2023/09/28 07:14:53;;;;;;;6.15;3.55;;;;;;;18.44;100.00;98517.56;5111118;28;20179;-57
2023/09/28 07:17:37;;;;;;;4.30;3.45;;;;;;;18.41;100.00;98515.28;5110962;28;20212;-57
2023/09/28 07:20:21;;;;;;;7.25;3.80;;;;;;;18.37;100.00;98519.16;5111008;28;20171;-58
2023/09/28 07:22:48;;;;;;;9.23;3.25;;;;;;;18.19;100.00;98494.75;5067690;28;20184;-57
2023/09/28 07:25:13;;;;;;;4.72;3.05;;;;;;;18.33;100.00;98526.50;5067794;28;20709;-57
2023/09/28 07:27:41;;;;;;;7.68;3.08;;;;;;;18.01;100.00;98488.69;5067892;28;20203;-57
2023/09/28 07:30:06;;;;;;;5.03;3.00;;;;;;;18.10;100.00;98524.44;5067610;28;20337;-57
2023/09/28 07:32:32;;;;;;;4.35;3.33;;;;;;;18.07;100.00;98533.41;5067735;28;20180;-57
2023/09/28 07:34:57;;;;;;;5.00;3.20;;;;;;;18.08;100.00;98518.53;5067750;28;20285;-58
2023/09/28 07:37:24;;;;;;;6.18;3.70;;;;;;;17.88;100.00;98485.59;5067797;28;20181;-58
2023/09/28 07:39:50;;;;;;;4.63;3.42;;;;;;;18.04;100.00;98497.06;5067826;28;20749;-56
2023/09/28 07:44:59;;;;;;;6.78;2.80;;;;;;;18.14;100.00;98483.88;5067852;28;20242;-57
2023/09/28 07:47:24;;;;;;;6.55;3.08;;;;;;;18.27;100.00;98486.94;5067692;28;20168;-57
2023/09/28 07:49:52;;;;;;;6.57;3.17;;;;;;;18.36;100.00;98481.66;5067626;28;20219;-57
2023/09/28 07:52:18;;;;;;;4.85;2.90;;;;;;;18.45;100.00;98487.78;5067581;28;20553;-56
2023/09/28 07:54:43;;;;;;;4.18;3.03;;;;;;;18.56;100.00;98491.00;5085590;28;20231;-56
2023/09/28 07:57:09;;;;;;;7.53;3.67;;;;;;;18.70;100.00;98500.91;5087836;28;20258;-56
2023/09/28 07:59:54;;;;;;;6.43;3.65;;;;;;;18.76;100.00;98504.72;5070712;28;20192;-56
2023/09/28 08:02:20;;;;;;;3.95;3.10;;;;;;;18.78;100.00;98502.78;5071085;28;20181;-57
2023/09/28 08:05:04;;;;;;;7.20;3.28;;;;;;;18.93;100.00;98516.94;5071091;28;20669;-57
2023/09/28 08:07:33;;;;;;;6.07;3.45;;;;;;;18.95;100.00;98515.00;5070988;28;20172;-57
2023/09/28 08:10:00;;;;;;;5.90;3.60;;;;;;;18.87;100.00;98507.06;5070905;28;20216;-57
2023/09/28 08:12:26;;;;;;;3.80;3.47;;;;;;;18.82;100.00;98504.91;5070771;28;20185;-57
2023/09/28 08:14:52;;;;;;;6.20;3.72;;;;;;;18.71;100.00;98497.31;5071032;28;20245;-57
2023/09/28 08:17:39;;;;;;;5.55;3.50;;;;;;;18.81;100.00;98510.31;5070829;28;20173;-57
2023/09/28 08:20:26;;;;;;;5.20;3.42;;;;;;;18.91;100.00;98514.50;5070824;28;20567;-57
2023/09/28 08:22:51;;;;;;;9.45;3.75;;;;;;;18.94;100.00;98516.00;5070831;28;20263;-57
2023/09/28 08:25:18;;;;;;;3.92;3.08;;;;;;;18.90;100.00;98506.78;5070727;28;20727;-57
2023/09/28 08:27:43;;;;;;;6.55;3.67;;;;;;;18.84;100.00;98481.19;5070591;28;20180;-57
2023/09/28 08:30:09;;;;;;;7.40;3.85;;;;;;;19.11;100.00;98510.66;5084403;28;20238;-57
2023/09/28 08:32:34;;;;;;;5.63;3.83;;;;;;;19.21;100.00;98514.03;5113455;28;20215;-57
2023/09/28 08:35:00;;;;;;;5.00;3.95;;;;;;;19.10;100.00;98487.22;5113538;28;20183;-57
2023/09/28 08:37:25;;;;;;;12.32;4.03;;;;;;;19.20;100.00;98487.94;5113451;28;20175;-57
2023/09/28 08:42:39;;;;;;;5.85;3.58;;;;;;;19.59;100.00;98489.13;5113557;28;20632;-57
2023/09/28 08:45:41;;;;;;;6.57;3.83;;;;;;;19.88;100.00;98498.22;5113412;28;20629;-57
2023/09/28 08:48:09;;;;;;;6.50;3.67;;;;;;;19.93;100.00;98488.03;5113341;28;20250;-57
2023/09/28 08:50:38;;;;;;;6.13;3.40;;;;;;;20.05;100.00;98485.94;5112915;28;20634;-57
2023/09/28 08:53:06;;;;;;;4.85;3.80;;;;;;;20.11;100.00;98506.34;5112969;28;20244;-57
2023/09/28 08:55:50;;;;;;;8.75;3.67;;;;;;;20.17;100.00;98519.63;5113215;28;20178;-57
2023/09/28 09:01:03;;;;;;;6.47;3.45;;;;;;;19.97;100.00;98517.44;5112951;28;20190;-57
2023/09/28 09:03:47;;;;;;;4.25;3.53;;;;;;;19.92;100.00;98510.03;5113022;28;20210;-57
2023/09/28 09:06:13;;;;;;;6.15;3.33;;;;;;;19.96;100.00;98507.91;5113079;28;20232;-57
2023/09/28 09:12:10;;;;;;;6.90;3.72;;;;;;;19.83;100.00;98469.00;5112957;28;20239;-57
2023/09/28 09:14:37;;;;;;;7.35;3.72;;;;;;;20.08;100.00;98490.88;5113128;28;20718;-57
2023/09/28 09:17:03;;;;;;;6.28;3.47;;;;;;;20.18;100.00;98486.31;5112739;28;20266;-58
2023/09/28 09:19:32;;;;;;;6.43;3.28;;;;;;;20.06;100.00;98477.06;5112726;28;20282;-57
2023/09/28 09:22:16;;;;;;;7.72;3.92;;;;;;;20.01;100.00;98476.72;5112754;28;20267;-56
2023/09/28 09:24:58;;;;;;;8.07;3.58;;;;;;;20.21;100.00;98512.25;5112548;28;20724;-55
2023/09/28 09:27:28;;;;;;;4.38;3.63;;;;;;;20.08;100.00;98480.38;5112317;28;20561;-56
2023/09/28 09:33:09;;;;;;;7.28;3.88;;;;;;;20.39;100.00;98510.31;5112264;28;20617;-56
2023/09/28 09:35:35;;;;;;;5.25;3.75;;;;;;;20.21;100.00;98485.97;5112687;28;20199;-56
2023/09/28 09:38:01;;;;;;;4.95;3.38;;;;;;;20.26;100.00;98494.19;5112301;28;20163;-57
2023/09/28 09:40:26;;;;;;;5.40;3.20;;;;;;;20.03;100.00;98466.88;5112267;28;20197;-56
2023/09/28 09:42:52;;;;;;;6.57;3.42;;;;;;;20.36;100.00;98513.25;5112286;28;20176;-56
2023/09/28 09:45:20;;;;;;;4.63;3.35;;;;;;;20.08;100.00;98472.50;5112236;28;20171;-57
2023/09/28 09:47:49;;;;;;;5.30;3.53;;;;;;;20.15;100.00;98457.72;5112196;28;20235;-56
2023/09/28 09:50:16;;;;;;;9.55;3.70;;;;;;;20.23;98.88;98490.06;5112052;28;20199;-57
2023/09/28 09:52:46;;;;;;;8.40;3.00;;;;;;;20.22;94.66;98464.00;5112236;28;20253;-56
2023/09/28 09:58:16;;;;;;;5.68;3.28;;;;;;;20.59;100.00;98494.06;5049328;28;20606;-57
2023/09/28 10:00:42;;;;;;;7.88;3.22;;;;;;;20.63;100.00;98481.38;5048887;28;20570;-57
2023/09/28 10:03:09;;;;;;;8.98;3.80;;;;;;;20.62;100.00;98490.25;5048827;28;20184;-57
2023/09/28 10:05:35;;;;;;;5.80;3.28;;;;;;;20.51;100.00;98472.19;5048724;28;20196;-57
2023/09/28 10:08:19;;;;;;;10.50;3.67;;;;;;;20.74;100.00;98486.31;5048799;28;20174;-57
2023/09/28 10:11:22;;;;;;;11.52;3.78;;;;;;;20.76;100.00;98484.31;5048623;28;20212;-57
2023/09/28 10:13:49;;;;;;;6.07;3.20;;;;;;;20.78;100.00;98479.72;5048528;28;20597;-57
2023/09/28 10:16:17;;;;;;;5.07;3.03;;;;;;;20.77;100.00;98457.03;5048704;28;20284;-57
2023/09/28 10:18:47;;;;;;;4.60;3.50;;;;;;;20.78;99.94;98448.16;5048595;28;20192;-57
2023/09/28 10:21:38;;;;;;;7.35;3.55;;;;;;;21.01;96.05;98480.69;5047668;28;20216;-57
2023/09/28 10:27:08;;;;;;;8.15;3.70;;;;;;;21.08;97.04;98474.56;5101452;28;20198;-57
2023/09/28 10:29:34;;;;;;;11.10;3.92;;;;;;;20.89;98.25;98443.41;5111226;28;20695;-57
2023/09/28 10:32:18;;;;;;;6.00;3.72;;;;;;;20.93;100.00;98457.03;5111301;28;20179;-58
2023/09/28 10:34:45;;;;;;;7.75;5.55;;;;;;;21.06;98.70;98471.31;5111461;28;20718;-57
2023/09/28 10:43:07;;;;;;;6.43;3.47;;;;;;;20.84;97.33;98445.69;5111445;28;20295;-58
2023/09/28 10:45:36;;;;;;;5.10;3.78;;;;;;;20.93;96.96;98451.78;5111322;28;20167;-58
2023/09/28 10:48:02;;;;;;;9.95;3.53;;;;;;;20.88;97.96;98438.25;5111278;28;20186;-58
2023/09/28 10:50:27;;;;;;;7.75;3.50;;;;;;;21.02;99.72;98471.78;5111203;28;20198;-57
2023/09/28 10:52:56;;;;;;;5.75;4.15;;;;;;;20.85;100.00;98459.63;5111096;28;20257;-58
2023/09/28 10:55:21;;;;;;;6.60;4.05;;;;;;;20.93;100.00;98472.81;5075086;28;20194;-58
2023/09/28 10:57:47;;;;;;;4.35;3.92;;;;;;;20.80;100.00;98451.44;5111151;28;20635;-57
2023/09/28 11:00:13;;;;;;;5.65;3.70;;;;;;;20.66;100.00;98457.38;5111142;28;20802;-59
2023/09/28 11:02:58;;;;;;;9.23;3.80;;;;;;;20.83;99.41;98472.13;5111269;28;20179;-57
2023/09/28 11:05:23;;;;;;;5.35;3.40;;;;;;;20.62;96.58;98440.28;5111074;28;20550;-57
2023/09/28 11:07:49;;;;;;;8.88;3.70;;;;;;;20.91;93.15;98480.03;5111076;28;20171;-57
2023/09/28 11:10:14;;;;;;;8.35;3.20;;;;;;;20.85;92.80;98464.88;5111034;28;20194;-57
2023/09/28 11:12:41;;;;;;;6.38;3.60;;;;;;;20.71;93.57;98440.13;5111027;28;20230;-57
2023/09/28 11:15:09;;;;;;;9.32;4.75;;;;;;;20.71;95.17;98431.41;5111088;28;20270;-57
2023/09/28 11:17:35;;;;;;;10.63;4.72;;;;;;;20.99;95.64;98469.50;5110743;28;20272;-58
2023/09/28 11:20:01;;;;;;;6.90;3.88;;;;;;;21.00;96.08;98468.53;5111005;28;20645;-57
2023/09/28 11:22:30;;;;;;;5.07;3.28;;;;;;;20.94;96.28;98459.50;5110983;28;20183;-57
2023/09/28 11:24:56;;;;;;;8.10;5.25;;;;;;;20.82;95.67;98447.66;5110911;28;20637;-57
2023/09/28 11:30:16;;;;;;;4.10;3.33;;;;;;;20.65;96.84;98447.84;5110722;28;20205;-57
2023/09/28 11:32:51;;;;;;;5.88;3.65;;;;;;;20.64;96.57;98451.47;5111247;28;20175;-56
2023/09/28 11:35:22;;;;;;;7.25;4.22;;;;;;;20.64;96.70;98440.97;5114674;28;20170;-56
2023/09/28 11:37:48;;;;;;;10.27;4.45;;;;;;;20.75;97.36;98459.00;5114708;28;20645;-56
2023/09/28 11:40:13;;;;;;;5.88;3.72;;;;;;;20.81;95.73;98453.88;5114700;28;20229;-57
2023/09/28 11:42:42;;;;;;;9.82;3.95;;;;;;;20.72;97.10;98444.38;5114648;28;20217;-57
2023/09/28 11:45:12;;;;;;;4.85;3.58;;;;;;;20.79;94.55;98449.78;5114576;28;20180;-57
2023/09/28 11:47:37;;;;;;;6.53;3.25;;;;;;;20.72;95.03;98436.50;5114550;28;20176;-57
2023/09/28 11:50:07;;;;;;;4.57;4.10;;;;;;;20.73;95.61;98413.63;5114482;28;20257;-57
2023/09/28 11:52:34;;;;;;;3.78;3.20;;;;;;;20.78;94.72;98414.78;5114509;28;20187;-58
2023/09/28 11:55:19;;;;;;;5.45;3.38;;;;;;;21.07;94.25;98453.69;5114421;28;20172;-58
2023/09/28 11:57:44;;;;;;;5.28;3.38;;;;;;;21.10;95.04;98438.38;5114163;28;20221;-57
2023/09/28 12:00:18;;;;;;;6.28;3.65;;;;;;;21.26;94.07;98448.84;5050987;28;20702;-57
2023/09/28 12:02:47;;;;;;;5.65;4.18;;;;;;;21.33;92.65;98422.69;5051166;28;20188;-58
2023/09/28 12:07:59;;;;;;;4.57;3.53;;;;;;;21.67;91.79;98420.53;5051145;28;20288;-58
2023/09/28 12:10:24;;;;;;;4.60;3.42;;;;;;;21.85;89.61;98429.00;5050951;28;20300;-58
2023/09/28 12:12:50;;;;;;;5.30;3.60;;;;;;;21.81;89.89;98417.16;5050751;28;20674;-57
2023/09/28 12:15:34;;;;;;;5.80;3.30;;;;;;;21.90;89.06;98424.81;5050973;28;20181;-58
2023/09/28 12:18:18;;;;;;;6.85;2.85;;;;;;;22.00;88.00;98443.88;5051263;28;20570;-58
2023/09/28 12:20:43;;;;;;;4.88;3.20;;;;;;;21.92;87.91;98425.47;5050791;28;20223;-57
2023/09/28 12:23:27;;;;;;;6.95;3.08;;;;;;;21.87;88.80;98442.81;5050823;28;20606;-58
2023/09/28 12:26:11;;;;;;;5.40;3.42;;;;;;;21.85;89.28;98444.81;5050666;28;20643;-57
2023/09/28 12:28:37;;;;;;;5.82;2.95;;;;;;;21.56;89.46;98411.19;5030563;28;20185;-57
2023/09/28 12:31:04;;;;;;;5.65;3.45;;;;;;;21.52;91.15;98428.34;5057341;28;20219;-57
2023/09/28 12:33:29;;;;;;;9.80;4.05;;;;;;;21.39;91.82;98400.94;5090745;28;20196;-57
2023/09/28 12:35:56;;;;;;;4.18;3.70;;;;;;;21.45;93.24;98413.41;5091046;28;20654;-58
2023/09/28 12:38:22;;;;;;;13.73;4.68;;;;;;;21.57;93.56;98431.25;5090753;28;20195;-57
2023/09/28 12:41:09;;;;;;;7.50;3.95;;;;;;;21.59;94.36;98424.03;5090692;28;20186;-58
2023/09/28 12:43:34;;;;;;;15.45;4.35;;;;;;;21.58;94.40;98432.09;5090434;28;20188;-57
2023/09/28 12:46:00;;;;;;;21.02;4.50;;;;;;;21.58;94.89;98426.81;5089638;28;20502;-58
2023/09/28 12:48:25;;;;;;;8.63;3.78;;;;;;;21.58;94.16;98417.13;5090461;28;20279;-57
2023/09/28 12:53:38;;;;;;;3.85;3.15;;;;;;;21.53;95.63;98434.41;5090488;28;20183;-57
2023/09/28 12:56:03;;;;;;;5.70;3.45;;;;;;;21.50;94.84;98413.72;5090364;28;20208;-57
2023/09/28 12:58:29;;;;;;;5.68;3.55;;;;;;;21.48;94.72;98423.56;5091079;28;20768;-58
2023/09/28 13:00:55;;;;;;;5.25;3.45;;;;;;;21.26;94.48;98392.75;5113089;28;20605;-58
2023/09/28 13:03:20;;;;;;;4.63;3.20;;;;;;;21.51;94.78;98424.03;5113111;28;20175;-57
2023/09/28 13:05:46;;;;;;;5.43;3.38;;;;;;;21.37;94.86;98390.56;5112778;28;20170;-57